메인 페이지
METAR-TAF:

METAR-TAF

공항 :

Naval Auxiliary Landing Field San Clemente Island (Frederick Sherman Field)

San Clemente, 캘리포니아, 미국

위도: 33-01-16N, 경도: 118-34-52W, 고도: 55m

현재 날씨관측

예보는 1 시간 4분 전, 14:56시(UTC)에 발표되었습니다.
북서8kt
온도 16°C
습도 77%
기압 1011 hPa
시정: 16.1km
고도 900ft 상공 구름 조금

METAR: KNUC 201456Z 31008KT 10SM FEW009 16/12 A2985 RMK SLP106 T01560122

시각: 09:00 (16:00 UTC)

예보

예보 대상 시간: 20일 15시부터 21일 15시까지 (UTC)
북북서9kt
시정 10km 이상
고도 1000ft 상공 구름 보통
전환 중
20일 18시부터 20일 19시까지 (UTC)
북서14kt, 순간 최대 풍속 19kt
시정 10km 이상
고도 1300ft 상공 구름 보통
21일 0200시부터 (UTC)
서북서13kt, 순간 최대 풍속 18kt
시정: 9000m
고도 1300ft 상공 구름 많음
박무,

TAF: KNUC 2015/2115 33009KT 9999 SCT010 QNH2980INS BECMG 2018/2019 31014G19KT 9999 SCT013 QNH2974INS FM210200 30013G18KT 9000 BR BKN013 QNH2975INS TX20/2023Z TN14/2113Z FS30205

4,000개 이상의 공항 관측 자료 및 예보 (METAR 및 TAF 보고).

지도상에서 검색 가능한 기상관측소가 노란 점과 빨간 점으로 표시되어 있습니다.

기상관측소 명을 보려면 표시 위로 마우스를 이동하세요.

날씨 관측과 예보를 보려면 클릭하세요.

지도 변경 : 확대하려면 엑스 표시가 있는 녹색 버튼, 축소하려면 빼기 표시가 있는 녹색 버튼, 다음 페이지의 지도를 보려면 녹색 화살표를 클릭하세요.


METAR-TAF: